Time;durP1;ratioP1;P1;durP2;ratioP2;P2;SDS_P1;SDS_P2;PMS_P1;PMS_P2;Temp;Humidity;BMP_temperature;BMP_pressure;BME280_temperature;BME280_humidity;BME280_pressure;Samples;Min_cycle;Max_cycle;Signal;HPM_P1;HPM_P2
2021/10/10 00:02:16;;;;;;;21.70;13.93;;;;;;;;;;5036044;28;20104;-51
2021/10/10 00:04:44;;;;;;;21.00;10.73;;;;;;;;;;5035240;28;20017;-51
2021/10/10 00:07:10;;;;;;;14.40;8.57;;;;;;;;;;5035584;28;20056;-47
2021/10/10 00:09:37;;;;;;;20.58;10.82;;;;;;;;;;5035700;28;20021;-49
2021/10/10 00:12:03;;;;;;;21.13;11.45;;;;;;;;;;5035777;28;20481;-58
2021/10/10 00:14:29;;;;;;;28.83;17.20;;;;;;;;;;5035740;28;20527;-59
2021/10/10 00:16:55;;;;;;;23.33;14.57;;;;;;;;;;5035599;28;20087;-59
2021/10/10 00:19:24;;;;;;;16.45;10.75;;;;;;;;;;5035464;28;20513;-57
2021/10/10 00:21:52;;;;;;;22.92;12.65;;;;;;;;;;5035516;28;20033;-58
2021/10/10 00:24:18;;;;;;;25.50;15.27;;;;;;;;;;5035320;28;20128;-58
2021/10/10 00:26:44;;;;;;;28.45;13.13;;;;;;;;;;5035406;28;20033;-58
2021/10/10 00:29:10;;;;;;;30.65;17.27;;;;;;;;;;5035364;28;20017;-59
2021/10/10 00:31:37;;;;;;;26.42;14.02;;;;;;;;;;5035328;28;20061;-58
2021/10/10 00:34:03;;;;;;;22.05;14.35;;;;;;;;;;5035304;28;20076;-51
2021/10/10 00:36:30;;;;;;;36.95;19.88;;;;;;;;;;5035343;28;20028;-57
2021/10/10 00:38:56;;;;;;;34.10;20.20;;;;;;;;;;5035391;28;20032;-53
2021/10/10 00:41:22;;;;;;;28.35;15.75;;;;;;;;;;5035082;28;20033;-57
2021/10/10 00:43:48;;;;;;;34.65;20.77;;;;;;;;;;5035061;28;20104;-54
2021/10/10 00:46:15;;;;;;;34.05;19.33;;;;;;;;;;5034888;28;20044;-59
2021/10/10 00:48:41;;;;;;;21.77;13.65;;;;;;;;;;5035000;28;20112;-50
2021/10/10 00:51:07;;;;;;;21.52;13.00;;;;;;;;;;5035112;28;20037;-53
2021/10/10 00:53:36;;;;;;;22.92;11.15;;;;;;;;;;5034922;28;20053;-48
2021/10/10 00:56:02;;;;;;;23.20;13.75;;;;;;;;;;5034965;28;20033;-48
2021/10/10 00:58:29;;;;;;;24.45;13.88;;;;;;;;;;5034882;28;20033;-54
2021/10/10 01:00:57;;;;;;;36.60;20.45;;;;;;;;;;5034710;28;20025;-48
2021/10/10 01:03:23;;;;;;;17.83;10.63;;;;;;;;;;5034731;28;20144;-48
2021/10/10 01:05:50;;;;;;;18.48;9.85;;;;;;;;;;5034763;28;20065;-57
2021/10/10 01:08:17;;;;;;;21.92;11.85;;;;;;;;;;5034576;28;20432;-49
2021/10/10 01:10:49;;;;;;;17.35;10.70;;;;;;;;;;5034574;28;20044;-54
2021/10/10 01:13:19;;;;;;;20.48;11.55;;;;;;;;;;5034319;28;20056;-49
2021/10/10 01:15:46;;;;;;;16.45;9.48;;;;;;;;;;5034477;28;20025;-50
2021/10/10 01:18:12;;;;;;;17.77;9.50;;;;;;;;;;5034260;28;20438;-50
2021/10/10 01:20:46;;;;;;;21.23;10.32;;;;;;;;;;5034367;28;20028;-48
2021/10/10 01:23:12;;;;;;;16.92;10.48;;;;;;;;;;5034212;28;20041;-52
2021/10/10 01:25:38;;;;;;;25.63;13.98;;;;;;;;;;5034017;28;20053;-57
2021/10/10 01:28:05;;;;;;;41.55;23.02;;;;;;;;;;5033994;28;20028;-50
2021/10/10 01:30:31;;;;;;;13.77;9.57;;;;;;;;;;5034380;28;20037;-52
2021/10/10 01:32:57;;;;;;;18.17;11.77;;;;;;;;;;5034651;28;20339;-49
2021/10/10 01:35:24;;;;;;;20.02;11.02;;;;;;;;;;5033992;28;20112;-48
2021/10/10 01:37:50;;;;;;;23.90;14.50;;;;;;;;;;5034152;28;20436;-50
2021/10/10 01:40:19;;;;;;;18.65;11.30;;;;;;;;;;5034161;28;20025;-48
2021/10/10 01:42:45;;;;;;;24.20;15.45;;;;;;;;;;5032641;28;20511;-49
2021/10/10 01:45:19;;;;;;;25.40;15.07;;;;;;;;;;5034052;28;20037;-49
2021/10/10 01:47:45;;;;;;;25.75;12.98;;;;;;;;;;5034066;28;20432;-56
2021/10/10 01:50:12;;;;;;;32.40;16.48;;;;;;;;;;5033802;28;20049;-48
2021/10/10 01:52:40;;;;;;;18.90;12.30;;;;;;;;;;5033951;28;20025;-52
2021/10/10 01:55:07;;;;;;;25.42;14.63;;;;;;;;;;5033732;28;20022;-48
2021/10/10 01:57:33;;;;;;;27.15;14.68;;;;;;;;;;5033615;28;20076;-57
2021/10/10 01:59:59;;;;;;;24.77;13.38;;;;;;;;;;5033760;28;20533;-52
2021/10/10 02:02:30;;;;;;;28.00;15.18;;;;;;;;;;5033555;28;20036;-55
2021/10/10 02:04:56;;;;;;;24.55;13.70;;;;;;;;;;5033659;28;20147;-48
2021/10/10 02:07:24;;;;;;;23.10;11.88;;;;;;;;;;5033668;28;20025;-48
2021/10/10 02:09:50;;;;;;;25.23;13.93;;;;;;;;;;5033487;28;20059;-48
2021/10/10 02:12:21;;;;;;;24.33;15.18;;;;;;;;;;5033420;28;20040;-48
2021/10/10 02:14:47;;;;;;;21.20;12.32;;;;;;;;;;5033571;28;20022;-57
2021/10/10 02:17:13;;;;;;;27.10;12.00;;;;;;;;;;5033664;28;20053;-58
2021/10/10 02:19:39;;;;;;;27.38;14.63;;;;;;;;;;5033476;28;20108;-49
2021/10/10 02:22:05;;;;;;;18.20;11.40;;;;;;;;;;5033325;28;20465;-57
2021/10/10 02:24:31;;;;;;;21.40;11.30;;;;;;;;;;5033055;28;20478;-49
2021/10/10 02:26:57;;;;;;;20.42;10.63;;;;;;;;;;5033228;28;20532;-59
2021/10/10 02:29:23;;;;;;;26.00;12.43;;;;;;;;;;5032695;28;20061;-49
2021/10/10 02:31:50;;;;;;;24.15;14.18;;;;;;;;;;5033219;28;20048;-49
2021/10/10 02:34:18;;;;;;;24.05;11.63;;;;;;;;;;5033143;28;20021;-49
2021/10/10 02:36:45;;;;;;;22.52;13.30;;;;;;;;;;5033320;28;20033;-49
2021/10/10 02:39:11;;;;;;;22.52;13.00;;;;;;;;;;5033695;28;20028;-51
2021/10/10 02:41:37;;;;;;;18.23;11.45;;;;;;;;;;5033151;28;20033;-50
2021/10/10 02:44:06;;;;;;;18.38;11.82;;;;;;;;;;5033076;28;20032;-49
2021/10/10 02:46:32;;;;;;;20.58;11.45;;;;;;;;;;5033278;28;20018;-49
2021/10/10 02:49:00;;;;;;;19.10;11.18;;;;;;;;;;5033195;28;20026;-59
2021/10/10 02:51:26;;;;;;;20.35;12.68;;;;;;;;;;5032951;28;20120;-55
2021/10/10 02:53:55;;;;;;;19.58;11.18;;;;;;;;;;5033090;28;20389;-51
2021/10/10 02:56:21;;;;;;;22.73;13.10;;;;;;;;;;5033075;28;20029;-55
2021/10/10 02:58:47;;;;;;;20.45;11.02;;;;;;;;;;5033260;28;20018;-49
2021/10/10 03:01:14;;;;;;;22.67;12.93;;;;;;;;;;5033271;28;20032;-58
2021/10/10 03:03:40;;;;;;;16.45;10.07;;;;;;;;;;5032969;28;20037;-51
2021/10/10 03:06:07;;;;;;;20.40;12.75;;;;;;;;;;5033221;28;20079;-59
2021/10/10 03:08:34;;;;;;;16.90;9.32;;;;;;;;;;5032859;28;20053;-49
2021/10/10 03:11:00;;;;;;;16.70;9.35;;;;;;;;;;5032640;28;20064;-49
2021/10/10 03:13:26;;;;;;;16.85;9.30;;;;;;;;;;5047758;28;20041;-58
2021/10/10 03:15:52;;;;;;;16.02;9.02;;;;;;;;;;5032994;28;20024;-50
2021/10/10 03:18:18;;;;;;;18.52;9.25;;;;;;;;;;5032935;28;20021;-49
2021/10/10 03:20:45;;;;;;;13.15;8.20;;;;;;;;;;5032520;28;20028;-49
2021/10/10 03:23:11;;;;;;;16.83;8.68;;;;;;;;;;5032369;28;20034;-48
2021/10/10 03:25:41;;;;;;;12.43;7.63;;;;;;;;;;5032430;28;20053;-50
2021/10/10 03:28:07;;;;;;;17.98;10.45;;;;;;;;;;5032675;28;20040;-50
2021/10/10 03:30:33;;;;;;;20.52;10.07;;;;;;;;;;5032397;28;20033;-49
2021/10/10 03:32:59;;;;;;;15.85;8.57;;;;;;;;;;5032752;28;20465;-55
2021/10/10 03:35:26;;;;;;;14.23;8.50;;;;;;;;;;5032569;28;20473;-52
2021/10/10 03:37:52;;;;;;;14.07;8.85;;;;;;;;;;5032490;28;20041;-50
2021/10/10 03:40:18;;;;;;;16.23;8.20;;;;;;;;;;5034295;28;20075;-54
2021/10/10 03:42:44;;;;;;;18.42;8.82;;;;;;;;;;5036091;28;20036;-53
2021/10/10 03:45:10;;;;;;;14.27;9.65;;;;;;;;;;5036212;28;20092;-48
2021/10/10 03:47:36;;;;;;;15.93;8.27;;;;;;;;;;5036206;28;20026;-48
2021/10/10 03:50:03;;;;;;;16.30;7.03;;;;;;;;;;5035993;28;20018;-50
2021/10/10 03:52:29;;;;;;;16.35;8.77;;;;;;;;;;5036028;28;20033;-58
2021/10/10 03:57:30;;;;;;;17.77;8.10;;;;;;;;;;5036138;28;20033;-49
2021/10/10 04:00:08;;;;;;;12.82;7.68;;;;;;;;;;5035939;28;20432;-48
2021/10/10 04:02:35;;;;;;;15.10;8.95;;;;;;;;;;5036179;28;20025;-50
2021/10/10 04:05:08;;;;;;;18.70;9.52;;;;;;;;;;5035856;28;20026;-49
2021/10/10 04:07:34;;;;;;;13.65;7.25;;;;;;;;;;5035877;28;20053;-58
2021/10/10 04:10:00;;;;;;;14.50;7.70;;;;;;;;;;5035597;28;20021;-55
2021/10/10 04:12:26;;;;;;;15.07;7.43;;;;;;;;;;5035875;28;20040;-50
2021/10/10 04:14:52;;;;;;;15.00;7.63;;;;;;;;;;5035991;28;20075;-59
2021/10/10 04:17:18;;;;;;;15.85;7.88;;;;;;;;;;5035752;28;20438;-59
2021/10/10 04:19:45;;;;;;;13.77;8.07;;;;;;;;;;5035846;28;20030;-59
2021/10/10 04:22:11;;;;;;;18.70;9.50;;;;;;;;;;5035365;28;20052;-49
2021/10/10 04:24:37;;;;;;;20.23;8.73;;;;;;;;;;5035170;28;20050;-57
2021/10/10 04:27:03;;;;;;;13.52;8.65;;;;;;;;;;5035761;28;20073;-54
2021/10/10 04:29:29;;;;;;;14.98;7.70;;;;;;;;;;5035448;28;20040;-50
2021/10/10 04:31:55;;;;;;;13.68;7.90;;;;;;;;;;5035349;28;20486;-59
2021/10/10 04:34:21;;;;;;;13.20;7.25;;;;;;;;;;5035486;28;20029;-53
2021/10/10 04:36:47;;;;;;;11.95;7.75;;;;;;;;;;5035306;28;20488;-59
2021/10/10 04:39:13;;;;;;;15.35;7.28;;;;;;;;;;5035214;28;20138;-57
2021/10/10 04:41:42;;;;;;;14.10;8.48;;;;;;;;;;5035315;28;20024;-58
2021/10/10 04:44:08;;;;;;;16.42;8.85;;;;;;;;;;5035317;28;20028;-59
2021/10/10 04:46:34;;;;;;;12.95;8.57;;;;;;;;;;5035292;28;20057;-52
2021/10/10 04:49:00;;;;;;;13.85;8.45;;;;;;;;;;5035218;28;20422;-49
2021/10/10 04:51:26;;;;;;;15.43;10.10;;;;;;;;;;5034316;28;20397;-49
2021/10/10 04:53:52;;;;;;;17.55;8.48;;;;;;;;;;5034887;28;20048;-48
2021/10/10 04:56:19;;;;;;;17.20;9.10;;;;;;;;;;5034962;28;20038;-48
2021/10/10 04:58:45;;;;;;;15.15;8.68;;;;;;;;;;5035066;28;20028;-49
2021/10/10 05:01:11;;;;;;;15.60;9.40;;;;;;;;;;5034935;28;20104;-50
2021/10/10 05:03:37;;;;;;;17.70;7.82;;;;;;;;;;5034801;28;20025;-48
2021/10/10 05:06:04;;;;;;;18.48;7.85;;;;;;;;;;5034767;28;20026;-51
2021/10/10 05:08:32;;;;;;;22.20;9.10;;;;;;;;;;5034653;28;20033;-59
2021/10/10 05:11:01;;;;;;;12.88;8.45;;;;;;;;;;5034401;28;20070;-49
2021/10/10 05:13:27;;;;;;;12.65;7.72;;;;;;;;;;5034558;28;20017;-49
2021/10/10 05:15:55;;;;;;;16.85;9.43;;;;;;;;;;5034320;28;20018;-48
2021/10/10 05:18:21;;;;;;;18.88;9.63;;;;;;;;;;5034474;28;20021;-50
2021/10/10 05:20:48;;;;;;;16.67;9.55;;;;;;;;;;5034786;28;20026;-59
2021/10/10 05:23:15;;;;;;;19.45;9.05;;;;;;;;;;5034159;28;20084;-49
2021/10/10 05:25:41;;;;;;;14.35;9.40;;;;;;;;;;5034065;28;20056;-51
2021/10/10 05:28:08;;;;;;;23.05;9.77;;;;;;;;;;5034267;28;20022;-49
2021/10/10 05:30:36;;;;;;;15.32;10.43;;;;;;;;;;5034314;28;20030;-48
2021/10/10 05:33:02;;;;;;;18.05;9.98;;;;;;;;;;5034340;28;20076;-61
2021/10/10 05:35:28;;;;;;;14.48;9.02;;;;;;;;;;5034320;28;20021;-54
2021/10/10 05:37:54;;;;;;;17.55;9.30;;;;;;;;;;5034023;28;20116;-57
2021/10/10 05:40:20;;;;;;;15.73;9.18;;;;;;;;;;5034139;28;20075;-58
2021/10/10 05:42:46;;;;;;;19.65;8.95;;;;;;;;;;5034105;28;20018;-58
2021/10/10 05:45:12;;;;;;;12.95;8.68;;;;;;;;;;5034211;28;20032;-57
2021/10/10 05:47:38;;;;;;;18.30;9.55;;;;;;;;;;5033787;28;20076;-57
2021/10/10 05:50:08;;;;;;;18.30;9.18;;;;;;;;;;5033863;28;20394;-55
2021/10/10 05:52:34;;;;;;;15.23;9.52;;;;;;;;;;5033592;28;20342;-56
2021/10/10 05:55:00;;;;;;;17.90;10.18;;;;;;;;;;5033637;28;20021;-53
2021/10/10 05:57:35;;;;;;;17.17;9.32;;;;;;;;;;5032378;28;20045;-56
2021/10/10 06:00:06;;;;;;;16.05;8.80;;;;;;;;;;5033700;28;20480;-59
2021/10/10 06:02:33;;;;;;;14.52;9.35;;;;;;;;;;5033424;28;20048;-60
2021/10/10 06:04:59;;;;;;;20.77;9.30;;;;;;;;;;5033238;28;20021;-59
2021/10/10 06:07:25;;;;;;;20.45;10.85;;;;;;;;;;5033533;28;20053;-59
2021/10/10 06:09:51;;;;;;;19.35;10.82;;;;;;;;;;5033609;28;20029;-50
2021/10/10 06:12:17;;;;;;;20.65;11.32;;;;;;;;;;5033696;28;20407;-54
2021/10/10 06:14:43;;;;;;;20.17;10.10;;;;;;;;;;5033454;28;20407;-56
2021/10/10 06:17:11;;;;;;;19.55;10.57;;;;;;;;;;5015417;28;20037;-59
2021/10/10 06:19:37;;;;;;;15.93;8.77;;;;;;;;;;5033799;28;20018;-57
2021/10/10 06:22:05;;;;;;;16.90;9.32;;;;;;;;;;5033341;28;20498;-58
2021/10/10 06:24:31;;;;;;;23.27;10.02;;;;;;;;;;5033048;28;20053;-58
2021/10/10 06:26:57;;;;;;;17.63;9.45;;;;;;;;;;5033386;28;20489;-49
2021/10/10 06:29:26;;;;;;;16.38;8.82;;;;;;;;;;5033432;28;20029;-49
2021/10/10 06:31:52;;;;;;;18.73;10.35;;;;;;;;;;5033251;28;20515;-49
2021/10/10 06:34:20;;;;;;;25.80;10.82;;;;;;;;;;5033166;28;20468;-58
2021/10/10 06:36:46;;;;;;;21.38;9.98;;;;;;;;;;5033241;28;20029;-60
2021/10/10 06:39:13;;;;;;;25.65;11.32;;;;;;;;;;5033295;28;20381;-60
2021/10/10 06:41:39;;;;;;;27.55;12.20;;;;;;;;;;5033386;28;20468;-59
2021/10/10 06:44:08;;;;;;;25.10;12.35;;;;;;;;;;5033217;28;20109;-57
2021/10/10 06:46:34;;;;;;;19.50;11.77;;;;;;;;;;5033153;28;20026;-60
2021/10/10 06:49:00;;;;;;;23.02;11.63;;;;;;;;;;5033398;28;20071;-55
2021/10/10 06:51:28;;;;;;;18.42;11.25;;;;;;;;;;5032991;28;20022;-56
2021/10/10 06:53:54;;;;;;;23.40;10.65;;;;;;;;;;5032827;28;20477;-60
2021/10/10 06:56:20;;;;;;;29.70;15.93;;;;;;;;;;5033156;28;20033;-58
2021/10/10 06:58:46;;;;;;;25.50;16.30;;;;;;;;;;5033082;28;20025;-54
2021/10/10 07:01:13;;;;;;;21.55;13.98;;;;;;;;;;5033151;28;20469;-51
2021/10/10 07:03:42;;;;;;;24.00;12.65;;;;;;;;;;5033053;28;20068;-56
2021/10/10 07:06:08;;;;;;;23.33;12.55;;;;;;;;;;5032875;28;20109;-58
2021/10/10 07:08:35;;;;;;;28.60;13.73;;;;;;;;;;5032883;28;20109;-48
2021/10/10 07:11:01;;;;;;;26.35;14.18;;;;;;;;;;5032868;28;20381;-58
2021/10/10 07:13:27;;;;;;;26.33;14.20;;;;;;;;;;5033120;28;20101;-58
2021/10/10 07:15:55;;;;;;;21.77;13.68;;;;;;;;;;5035774;28;20060;-58
2021/10/10 07:18:25;;;;;;;21.17;11.27;;;;;;;;;;5036872;28;20033;-60
2021/10/10 07:21:20;;;;;;;19.67;12.35;;;;;;;;;;5045890;28;20419;-55
2021/10/10 07:26:20;;;;;;;32.92;17.65;;;;;;;;;;5053865;28;20036;-53
2021/10/10 07:28:46;;;;;;;21.13;13.82;;;;;;;;;;5056236;28;20025;-52
2021/10/10 07:31:12;;;;;;;31.85;18.15;;;;;;;;;;5055938;28;20029;-54
2021/10/10 07:33:40;;;;;;;22.48;13.90;;;;;;;;;;5055317;28;20025;-56
2021/10/10 07:36:08;;;;;;;20.25;12.95;;;;;;;;;;5055655;28;20029;-52
2021/10/10 07:38:37;;;;;;;30.10;17.25;;;;;;;;;;5054898;28;20491;-48
2021/10/10 07:41:04;;;;;;;23.80;13.98;;;;;;;;;;5054218;28;20024;-50
2021/10/10 07:43:31;;;;;;;27.13;16.05;;;;;;;;;;5053736;28;20017;-52
2021/10/10 07:46:10;;;;;;;27.67;15.82;;;;;;;;;;5054073;28;20021;-57
2021/10/10 07:48:37;;;;;;;21.08;12.25;;;;;;;;;;5053044;28;20040;-49
2021/10/10 07:51:03;;;;;;;27.10;15.57;;;;;;;;;;5055993;28;20090;-51
2021/10/10 07:53:31;;;;;;;24.42;13.27;;;;;;;;;;5055853;28;20107;-52
2021/10/10 07:55:58;;;;;;;24.88;14.65;;;;;;;;;;5056191;28;20025;-50
2021/10/10 07:58:24;;;;;;;31.48;15.32;;;;;;;;;;5056069;28;20079;-55
2021/10/10 08:00:50;;;;;;;27.77;17.02;;;;;;;;;;5054988;28;20024;-55
2021/10/10 08:03:16;;;;;;;35.10;22.75;;;;;;;;;;5054669;28;20051;-51
2021/10/10 08:05:45;;;;;;;37.88;22.15;;;;;;;;;;5054808;28;20025;-49
2021/10/10 08:08:12;;;;;;;40.13;22.98;;;;;;;;;;5054523;28;20025;-51
2021/10/10 08:10:38;;;;;;;45.08;23.95;;;;;;;;;;5054729;28;20057;-50
2021/10/10 08:13:05;;;;;;;44.58;22.83;;;;;;;;;;5054482;28;20071;-51
2021/10/10 08:15:31;;;;;;;40.70;22.70;;;;;;;;;;5054600;28;20021;-54
2021/10/10 08:17:57;;;;;;;49.50;22.30;;;;;;;;;;5055727;28;20025;-56
2021/10/10 08:20:23;;;;;;;40.28;23.95;;;;;;;;;;5055727;28;20021;-58
2021/10/10 08:22:50;;;;;;;35.17;19.13;;;;;;;;;;5055690;28;20036;-49
2021/10/10 08:25:17;;;;;;;27.30;15.95;;;;;;;;;;5055302;28;20044;-59
2021/10/10 08:27:44;;;;;;;27.50;16.00;;;;;;;;;;5054803;28;20082;-53
2021/10/10 08:30:11;;;;;;;25.08;14.13;;;;;;;;;;5055444;28;20036;-55
2021/10/10 08:32:38;;;;;;;23.25;13.43;;;;;;;;;;5054422;28;20037;-49
2021/10/10 08:35:04;;;;;;;19.67;11.93;;;;;;;;;;5054662;28;20075;-50
2021/10/10 08:37:30;;;;;;;23.50;10.88;;;;;;;;;;5055082;28;20075;-57
2021/10/10 08:39:57;;;;;;;21.73;13.13;;;;;;;;;;5055249;28;20464;-55
2021/10/10 08:42:28;;;;;;;25.02;15.65;;;;;;;;;;5055358;28;20029;-50
2021/10/10 08:45:00;;;;;;;;;;;;;;;;;;5054748;28;20033;-49
2021/10/10 08:47:26;;;;;;;33.53;14.75;;;;;;;;;;5055195;28;20391;-48
2021/10/10 08:49:52;;;;;;;23.05;16.35;;;;;;;;;;5055168;28;20031;-48
2021/10/10 08:52:22;;;;;;;35.63;20.55;;;;;;;;;;5055105;28;20033;-58
2021/10/10 08:54:48;;;;;;;26.77;14.10;;;;;;;;;;5054987;28;20362;-49
2021/10/10 08:57:14;;;;;;;25.48;11.73;;;;;;;;;;5055144;28;20029;-49
2021/10/10 08:59:43;;;;;;;23.00;11.63;;;;;;;;;;5055036;28;20068;-50
2021/10/10 09:02:14;;;;;;;24.23;10.25;;;;;;;;;;5055020;28;20039;-49
2021/10/10 09:04:41;;;;;;;23.27;11.82;;;;;;;;;;5055040;28;20017;-54
2021/10/10 09:07:07;;;;;;;21.13;10.80;;;;;;;;;;5054893;28;20104;-59
2021/10/10 09:09:36;;;;;;;31.38;13.80;;;;;;;;;;5054849;28;20063;-55
2021/10/10 09:12:06;;;;;;;32.38;15.35;;;;;;;;;;5054573;28;20484;-59
2021/10/10 09:15:01;;;;;;;31.02;14.85;;;;;;;;;;5054665;28;20064;-51
2021/10/10 09:17:27;;;;;;;33.95;16.05;;;;;;;;;;5032678;28;20069;-49
2021/10/10 09:19:56;;;;;;;31.23;16.33;;;;;;;;;;5032671;28;20033;-57
2021/10/10 09:22:23;;;;;;;30.27;15.73;;;;;;;;;;5032411;28;20120;-49
2021/10/10 09:24:53;;;;;;;43.33;20.35;;;;;;;;;;5032118;28;20057;-52
2021/10/10 09:27:19;;;;;;;31.92;13.35;;;;;;;;;;5032343;28;20045;-58
2021/10/10 09:29:47;;;;;;;31.83;13.70;;;;;;;;;;5032353;28;20033;-52
2021/10/10 09:32:21;;;;;;;32.42;15.40;;;;;;;;;;5032389;28;20041;-50
2021/10/10 09:34:49;;;;;;;33.05;14.90;;;;;;;;;;5032668;28;20064;-51
2021/10/10 09:37:27;;;;;;;31.13;15.95;;;;;;;;;;5032431;28;20044;-50
2021/10/10 09:40:02;;;;;;;28.75;14.18;;;;;;;;;;5032199;28;20041;-49
2021/10/10 09:42:40;;;;;;;26.10;14.27;;;;;;;;;;5028986;28;20092;-49
2021/10/10 09:45:22;;;;;;;23.98;12.98;;;;;;;;;;5031510;28;20160;-49
2021/10/10 09:47:53;;;;;;;22.10;11.90;;;;;;;;;;5029055;28;20026;-51
2021/10/10 09:50:24;;;;;;;23.65;12.07;;;;;;;;;;5031582;28;20478;-53
2021/10/10 09:53:08;;;;;;;20.05;10.68;;;;;;;;;;5032845;28;20033;-50
2021/10/10 09:55:38;;;;;;;15.10;8.80;;;;;;;;;;5051668;28;20381;-51
2021/10/10 09:58:04;;;;;;;25.65;11.20;;;;;;;;;;5053608;28;20021;-51
2021/10/10 10:00:32;;;;;;;29.80;16.85;;;;;;;;;;5053422;28;20067;-49
2021/10/10 10:03:01;;;;;;;19.55;13.13;;;;;;;;;;5053739;28;20029;-48
2021/10/10 10:05:29;;;;;;;27.48;15.55;;;;;;;;;;5052806;28;20385;-48
2021/10/10 10:07:55;;;;;;;34.40;18.00;;;;;;;;;;5051394;28;20025;-49
2021/10/10 10:10:22;;;;;;;22.20;14.93;;;;;;;;;;5052419;28;20108;-61
2021/10/10 10:12:49;;;;;;;30.05;18.65;;;;;;;;;;5052242;28;20067;-49
2021/10/10 10:15:15;;;;;;;24.52;15.10;;;;;;;;;;5052235;28;20032;-57
2021/10/10 10:17:41;;;;;;;30.77;16.60;;;;;;;;;;5051928;28;20115;-50
2021/10/10 10:20:07;;;;;;;23.98;14.68;;;;;;;;;;5050942;28;20439;-59
2021/10/10 10:22:37;;;;;;;38.67;20.65;;;;;;;;;;5050822;28;20427;-62
2021/10/10 10:25:05;;;;;;;33.05;20.35;;;;;;;;;;5051814;28;20119;-56
2021/10/10 10:27:31;;;;;;;49.13;26.48;;;;;;;;;;5052018;28;20029;-59
2021/10/10 10:30:03;;;;;;;33.33;17.63;;;;;;;;;;5052001;28;20031;-60
2021/10/10 10:32:28;;;;;;;;;;;;;;;;;;5052611;28;20041;-55
2021/10/10 10:34:58;;;;;;;31.05;19.55;;;;;;;;;;5052579;28;19909;-58
2021/10/10 10:37:44;;;;;;;36.20;20.77;;;;;;;;;;5053144;28;20032;-53
2021/10/10 10:40:16;;;;;;;27.13;16.90;;;;;;;;;;5053222;28;20025;-58
2021/10/10 10:42:43;;;;;;;66.93;38.17;;;;;;;;;;5053099;28;20025;-48
2021/10/10 10:45:18;;;;;;;25.63;15.27;;;;;;;;;;5053394;28;20079;-51
2021/10/10 10:47:46;;;;;;;45.90;25.13;;;;;;;;;;5053123;28;20075;-50
2021/10/10 10:50:15;;;;;;;24.08;16.05;;;;;;;;;;5052745;28;20357;-48
2021/10/10 10:52:42;;;;;;;46.72;27.70;;;;;;;;;;5052978;28;20036;-48
2021/10/10 10:55:14;;;;;;;39.75;24.73;;;;;;;;;;5053270;28;20021;-55
2021/10/10 10:57:43;;;;;;;41.67;26.25;;;;;;;;;;5053166;28;20033;-53
2021/10/10 11:00:21;;;;;;;42.60;25.08;;;;;;;;;;5053081;28;20079;-53
2021/10/10 11:02:50;;;;;;;32.97;19.15;;;;;;;;;;5052494;28;20177;-61
2021/10/10 11:05:32;;;;;;;28.25;18.27;;;;;;;;;;5052238;28;20083;-57
2021/10/10 11:07:58;;;;;;;;;;;;;;;;;;5052882;28;20025;-51
2021/10/10 11:10:24;;;;;;;27.60;16.17;;;;;;;;;;5053062;28;19958;-55
2021/10/10 11:12:57;;;;;;;52.70;24.58;;;;;;;;;;5053185;28;20388;-57
2021/10/10 11:15:23;;;;;;;64.55;32.25;;;;;;;;;;5053018;28;20040;-47
2021/10/10 11:17:56;;;;;;;60.10;31.42;;;;;;;;;;5053041;28;20376;-48
2021/10/10 11:20:22;;;;;;;61.60;34.78;;;;;;;;;;5053086;28;20024;-58
2021/10/10 11:22:49;;;;;;;71.55;36.88;;;;;;;;;;5052978;28;20473;-58
2021/10/10 11:25:15;;;;;;;53.42;27.42;;;;;;;;;;5052811;28;20668;-59
2021/10/10 11:27:41;;;;;;;38.97;22.48;;;;;;;;;;5052856;28;20032;-57
2021/10/10 11:30:13;;;;;;;35.85;20.10;;;;;;;;;;5052734;28;20496;-59
2021/10/10 11:33:05;;;;;;;56.33;32.47;;;;;;;;;;5052747;28;20041;-59
2021/10/10 11:35:31;;;;;;;41.70;20.88;;;;;;;;;;5050630;28;20044;-57
2021/10/10 11:38:09;;;;;;;32.10;19.95;;;;;;;;;;5052427;28;20423;-58
2021/10/10 11:40:36;;;;;;;32.20;18.80;;;;;;;;;;5052616;28;20457;-58
2021/10/10 11:43:04;;;;;;;25.75;16.52;;;;;;;;;;5052590;28;20032;-58
2021/10/10 11:45:30;;;;;;;35.97;21.25;;;;;;;;;;5052640;28;20025;-57
2021/10/10 11:47:56;;;;;;;21.38;14.60;;;;;;;;;;5052454;28;20053;-57
2021/10/10 11:50:23;;;;;;;18.17;13.57;;;;;;;;;;5052655;28;20021;-56
2021/10/10 11:53:03;;;;;;;27.25;15.88;;;;;;;;;;5052545;28;20029;-56
2021/10/10 11:55:37;;;;;;;32.40;18.75;;;;;;;;;;5052524;28;20445;-57
2021/10/10 11:58:03;;;;;;;31.98;18.92;;;;;;;;;;5052419;28;20037;-57
2021/10/10 12:00:34;;;;;;;34.25;19.10;;;;;;;;;;5052253;28;20072;-57
2021/10/10 12:03:10;;;;;;;34.85;23.35;;;;;;;;;;5055284;28;20104;-56
2021/10/10 12:05:43;;;;;;;45.05;26.02;;;;;;;;;;5055993;28;20025;-56
2021/10/10 12:08:20;;;;;;;37.25;21.50;;;;;;;;;;5056001;28;20051;-56
2021/10/10 12:10:48;;;;;;;37.22;22.25;;;;;;;;;;5055996;28;20025;-56
2021/10/10 12:13:14;;;;;;;38.65;22.02;;;;;;;;;;5055766;28;20079;-56
2021/10/10 12:15:40;;;;;;;29.88;18.63;;;;;;;;;;5055808;28;20025;-56
2021/10/10 12:18:11;;;;;;;33.13;19.80;;;;;;;;;;5055739;28;20036;-55
2021/10/10 12:20:37;;;;;;;28.42;19.58;;;;;;;;;;5055925;28;20094;-54
2021/10/10 12:23:10;;;;;;;43.72;25.42;;;;;;;;;;5055644;28;20104;-55
2021/10/10 12:25:38;;;;;;;31.52;18.85;;;;;;;;;;5055486;28;20124;-54
2021/10/10 12:28:04;;;;;;;38.97;24.15;;;;;;;;;;5055809;28;20048;-59
2021/10/10 12:30:40;;;;;;;45.15;28.42;;;;;;;;;;5055396;28;20049;-56
2021/10/10 12:33:21;;;;;;;44.70;27.60;;;;;;;;;;5055048;28;20089;-57
2021/10/10 12:36:03;;;;;;;39.83;20.95;;;;;;;;;;5054504;28;20103;-56
2021/10/10 12:38:36;;;;;;;49.42;28.65;;;;;;;;;;5054632;28;20507;-56
2021/10/10 12:41:22;;;;;;;33.97;19.83;;;;;;;;;;5053347;28;20039;-54
2021/10/10 12:43:49;;;;;;;46.28;24.70;;;;;;;;;;5028868;28;20163;-56
2021/10/10 12:46:22;;;;;;;56.90;30.42;;;;;;;;;;5028163;28;20462;-54
2021/10/10 12:49:07;;;;;;;47.05;24.95;;;;;;;;;;5027852;28;20326;-55
2021/10/10 12:51:34;;;;;;;45.70;25.23;;;;;;;;;;5028371;28;20373;-55
2021/10/10 12:54:10;;;;;;;39.38;20.20;;;;;;;;;;5027680;28;20079;-55
2021/10/10 12:56:39;;;;;;;46.20;22.95;;;;;;;;;;5028066;28;20021;-54
2021/10/10 12:59:05;;;;;;;34.30;20.48;;;;;;;;;;5027974;28;20475;-55
2021/10/10 13:01:36;;;;;;;32.95;18.00;;;;;;;;;;5027880;28;20018;-55
2021/10/10 13:04:05;;;;;;;38.92;19.15;;;;;;;;;;5027728;28;20025;-55
2021/10/10 13:06:31;;;;;;;36.67;17.90;;;;;;;;;;5028435;28;20790;-55
2021/10/10 13:08:58;;;;;;;42.42;20.15;;;;;;;;;;5027642;28;20049;-56
2021/10/10 13:11:28;;;;;;;50.30;26.42;;;;;;;;;;5028087;28;20020;-55
2021/10/10 13:13:55;;;;;;;40.17;19.23;;;;;;;;;;5026967;28;20057;-54
2021/10/10 13:16:21;;;;;;;45.53;23.58;;;;;;;;;;5027887;28;20147;-54
2021/10/10 13:18:48;;;;;;;66.53;31.42;;;;;;;;;;5027691;28;20406;-54
2021/10/10 13:21:14;;;;;;;47.03;24.35;;;;;;;;;;5027246;28;20094;-55
2021/10/10 13:23:40;;;;;;;69.20;33.75;;;;;;;;;;5027422;28;20095;-55
2021/10/10 13:26:07;;;;;;;53.95;26.45;;;;;;;;;;5027542;28;20029;-54
2021/10/10 13:28:34;;;;;;;47.38;25.10;;;;;;;;;;5027482;28;20029;-54
2021/10/10 13:31:02;;;;;;;48.45;24.80;;;;;;;;;;5027397;28;20028;-55
2021/10/10 13:33:28;;;;;;;40.15;21.15;;;;;;;;;;5027536;28;20029;-54
2021/10/10 13:35:55;;;;;;;40.05;18.63;;;;;;;;;;5027049;28;20478;-54
2021/10/10 13:38:26;;;;;;;34.47;18.40;;;;;;;;;;5027409;28;20504;-54
2021/10/10 13:40:52;;;;;;;31.35;17.02;;;;;;;;;;5027477;28;20029;-54
2021/10/10 13:43:19;;;;;;;32.38;15.68;;;;;;;;;;5027570;28;20144;-54
2021/10/10 13:45:48;;;;;;;27.85;15.30;;;;;;;;;;5027178;28;20035;-54
2021/10/10 13:48:14;;;;;;;26.83;13.52;;;;;;;;;;5026416;28;20656;-54
2021/10/10 13:50:40;;;;;;;29.58;14.68;;;;;;;;;;5027177;28;20028;-54
2021/10/10 13:53:06;;;;;;;32.17;14.10;;;;;;;;;;5026297;28;20619;-54
2021/10/10 13:55:32;;;;;;;32.25;13.70;;;;;;;;;;5026915;28;20028;-54
2021/10/10 13:57:58;;;;;;;27.40;14.75;;;;;;;;;;5026858;28;20478;-54
2021/10/10 14:00:24;;;;;;;33.92;19.15;;;;;;;;;;5026796;28;20029;-54
2021/10/10 14:02:50;;;;;;;38.25;20.30;;;;;;;;;;5027151;28;20083;-54
2021/10/10 14:05:16;;;;;;;43.03;22.83;;;;;;;;;;5026725;28;20277;-54
2021/10/10 14:07:42;;;;;;;37.33;19.08;;;;;;;;;;5026718;28;20309;-54
2021/10/10 14:10:11;;;;;;;37.85;20.38;;;;;;;;;;5026725;28;20978;-55
2021/10/10 14:12:37;;;;;;;41.50;22.70;;;;;;;;;;5026305;28;20041;-54
2021/10/10 14:15:04;;;;;;;38.22;20.25;;;;;;;;;;5026512;28;20067;-55
2021/10/10 14:17:30;;;;;;;30.13;18.45;;;;;;;;;;5026615;28;20048;-55
2021/10/10 14:19:56;;;;;;;36.03;18.63;;;;;;;;;;5026199;28;20822;-54
2021/10/10 14:22:23;;;;;;;25.50;14.77;;;;;;;;;;5026343;28;20136;-55
2021/10/10 14:24:49;;;;;;;31.23;16.80;;;;;;;;;;5025422;28;20524;-54
2021/10/10 14:27:16;;;;;;;28.25;16.02;;;;;;;;;;5026266;28;20025;-54
2021/10/10 14:29:42;;;;;;;23.90;13.88;;;;;;;;;;5026265;28;20036;-54
2021/10/10 14:32:08;;;;;;;27.65;13.80;;;;;;;;;;5026101;28;20029;-55